createdAt,value
2022-10-06T02:09:35.035Z,97440.13
2022-10-06T02:14:41.201Z,97364.66
2022-10-06T02:19:52.795Z,97378.47
2022-10-06T02:24:55.853Z,97377.88
2022-10-06T02:30:05.022Z,97456.06
2022-10-06T02:35:17.207Z,97369.22
2022-10-06T02:40:27.238Z,97373.44
2022-10-06T02:59:36.728Z,97418.38
2022-10-06T03:05:19.152Z,97380.66
2022-10-06T03:10:55.881Z,97385.09
2022-10-06T03:16:04.702Z,97350.03
2022-10-06T03:21:48.668Z,97434.94
2022-10-06T03:32:42.390Z,97403.09
2022-10-06T03:37:58.740Z,97374.06
2022-10-06T03:43:40.138Z,97426.19
2022-10-06T04:06:55.645Z,97358.66
2022-10-06T04:17:40.186Z,97347.38
2022-10-06T05:37:50.555Z,97403.19
2022-10-06T05:42:59.583Z,97416.47
2022-10-06T05:48:03.596Z,97457.31
2022-10-06T05:53:32.743Z,97447.06
2022-10-06T05:58:56.391Z,97440.22
2022-10-06T06:04:05.786Z,97407.09
2022-10-06T06:09:18.413Z,97384.16
2022-10-06T06:14:47.250Z,97366.03
2022-10-06T06:19:54.855Z,97368.84
2022-10-06T06:25:12.402Z,97359.34
2022-10-06T06:30:18.908Z,97338.44
2022-10-06T06:35:28.136Z,97322.13
2022-10-06T06:40:34.751Z,97320.16
2022-10-06T06:45:37.582Z,97350.44
2022-10-06T07:02:20.006Z,97332.31
2022-10-06T07:13:54.727Z,97335.72
2022-10-06T07:19:24.970Z,97291.66
2022-10-06T07:30:40.737Z,97310.44
2022-10-06T07:35:52.995Z,97326.81
2022-10-06T07:46:22.490Z,97318.69
2022-10-06T07:51:54.172Z,97308.13
2022-10-06T07:56:57.314Z,97314.16
2022-10-06T08:01:59.422Z,97303.50
2022-10-06T08:46:53.115Z,97303.22
2022-10-06T08:52:10.802Z,97260.13
2022-10-06T08:57:39.508Z,97255.03
2022-10-06T09:02:49.345Z,97261.13
2022-10-06T09:14:42.577Z,97287.56
2022-10-06T09:20:01.831Z,97276.44
2022-10-06T09:25:35.480Z,97287.41
2022-10-06T09:30:38.014Z,97264.19
2022-10-06T09:36:10.010Z,97273.47
2022-10-06T09:41:15.630Z,97226.47
2022-10-06T09:46:32.441Z,97270.66
2022-10-06T09:51:36.805Z,97222.28
2022-10-06T09:56:45.541Z,97245.75
2022-10-06T10:01:55.853Z,97217.81
2022-10-06T10:07:32.483Z,97259.41
2022-10-06T10:12:58.577Z,97192.28
2022-10-06T10:18:19.299Z,97214.25
2022-10-06T10:23:57.473Z,97175.91
2022-10-06T10:29:33.062Z,97226.66
2022-10-06T10:34:58.954Z,97215.28
2022-10-06T10:40:35.906Z,97173.25
2022-10-06T10:45:55.603Z,97156.13
2022-10-06T10:51:19.409Z,97152.09
2022-10-06T10:56:26.675Z,97159.41
2022-10-06T11:01:29.841Z,97217.66
2022-10-06T11:06:41.872Z,97181.28
2022-10-06T11:12:13.974Z,97145.63
2022-10-06T11:17:29.910Z,97154.00
2022-10-06T11:22:53.068Z,97177.38
2022-10-06T11:28:36.224Z,97186.22
2022-10-06T11:33:46.744Z,97187.22
2022-10-06T11:38:57.003Z,97121.69
2022-10-06T11:44:24.090Z,97188.44
2022-10-06T11:49:29.609Z,97188.50
2022-10-06T11:54:44.121Z,97181.69
2022-10-06T11:59:46.493Z,97150.53
2022-10-06T12:10:58.858Z,97143.53
2022-10-06T12:28:34.970Z,97166.91
2022-10-06T13:06:53.155Z,97144.94
2022-10-06T13:18:38.437Z,97122.22
2022-10-06T13:23:41.518Z,97138.47
2022-10-06T13:47:39.890Z,97084.28
2022-10-06T13:52:54.958Z,97082.38
2022-10-06T13:58:05.166Z,97145.09
2022-10-06T14:44:26.994Z,97137.75
2022-10-06T15:13:11.649Z,97143.59
2022-10-06T15:18:39.502Z,97158.56
2022-10-06T15:23:48.506Z,97084.47
2022-10-06T15:29:06.061Z,97122.31
2022-10-06T15:34:15.234Z,97164.91
2022-10-06T15:55:47.721Z,97165.44
2022-10-06T16:01:11.794Z,97204.94
2022-10-06T16:19:43.262Z,97173.22
2022-10-06T16:24:58.111Z,97176.09
2022-10-06T16:30:00.662Z,97143.47
2022-10-06T16:35:03.123Z,97158.31
2022-10-06T16:40:05.815Z,97185.75
2022-10-06T16:45:16.011Z,97215.41
2022-10-06T16:50:18.507Z,97199.63
2022-10-06T16:55:20.762Z,97203.47
2022-10-06T17:00:23.148Z,97216.44
2022-10-06T17:05:25.527Z,97197.22
2022-10-06T17:10:27.906Z,97251.03
2022-10-06T17:15:33.407Z,97186.03
2022-10-06T17:20:54.517Z,97208.09
2022-10-06T17:26:23.561Z,97244.75
2022-10-06T17:31:32.828Z,97211.19
2022-10-06T17:36:38.261Z,97283.81
2022-10-06T17:41:47.923Z,97279.44
2022-10-06T17:46:52.580Z,97232.84
2022-10-06T17:51:56.094Z,97278.63
2022-10-06T17:56:59.354Z,97285.97
2022-10-06T18:02:03.348Z,97249.25
2022-10-06T18:07:06.446Z,97227.50
2022-10-06T18:12:10.668Z,97272.00
2022-10-06T18:17:13.019Z,97255.28
2022-10-06T18:22:17.082Z,97235.84
2022-10-06T18:27:19.273Z,97321.50
2022-10-06T18:34:12.032Z,97263.47
2022-10-06T18:37:47.145Z,97290.56
2022-10-06T18:42:49.537Z,97314.19
2022-10-06T18:48:10.138Z,97259.00
2022-10-06T18:53:16.699Z,97245.75
2022-10-06T18:58:45.265Z,97263.75
2022-10-06T19:03:47.624Z,97253.75
2022-10-06T19:09:02.222Z,97330.34
2022-10-06T19:14:04.556Z,97260.41
2022-10-06T19:19:11.499Z,97294.19
2022-10-06T19:24:16.749Z,97255.53
2022-10-06T19:29:23.917Z,97348.91
2022-10-06T19:34:52.031Z,97317.22
2022-10-06T19:40:03.792Z,97332.72
2022-10-06T19:45:07.417Z,97302.38
2022-10-06T19:50:12.566Z,97336.94
2022-10-06T19:55:15.252Z,97366.38
2022-10-06T20:06:42.203Z,97386.31
2022-10-06T20:17:48.635Z,97356.47
2022-10-06T20:23:05.826Z,97309.00
2022-10-06T20:52:06.527Z,97379.53
2022-10-06T20:57:14.954Z,97359.00
2022-10-06T21:09:20.741Z,97380.88
2022-10-06T21:14:45.198Z,97348.03
2022-10-06T21:20:16.503Z,97286.41
2022-10-06T21:25:19.805Z,97378.38
2022-10-06T21:30:51.932Z,97325.56
2022-10-06T21:54:26.442Z,97371.84
2022-10-06T21:59:46.859Z,97286.75
2022-10-06T22:06:19.259Z,97300.56
2022-10-06T22:14:25.602Z,97377.66
2022-10-06T22:19:43.061Z,97308.16
2022-10-06T22:25:12.415Z,97278.84
2022-10-06T22:30:22.828Z,97317.47
2022-10-06T22:42:19.262Z,97337.19
2022-10-06T22:54:38.491Z,97367.97
2022-10-06T23:05:29.972Z,97300.22
2022-10-06T23:17:37.719Z,97381.44
2022-10-06T23:52:37.378Z,97303.66
2022-10-06T23:58:13.230Z,97396.97
